Time;durP1;ratioP1;P1;durP2;ratioP2;P2;SDS_P1;SDS_P2;PMS_P1;PMS_P2;Temp;Humidity;BMP_temperature;BMP_pressure;BME280_temperature;BME280_humidity;BME280_pressure;Samples;Min_cycle;Max_cycle;Signal;HPM_P1;HPM_P2
2023/12/14 00:00:52;;;;;;;7.77;5.80;;;;;;;4.84;100.00;99919.78;5008942;28;20211;-80
2023/12/14 00:03:19;;;;;;;8.60;5.60;;;;;;;4.81;100.00;99930.53;5005045;28;20214;-79
2023/12/14 00:05:45;;;;;;;9.10;6.40;;;;;;;4.79;100.00;99937.66;5012051;28;20218;-79
2023/12/14 00:08:13;;;;;;;9.67;6.23;;;;;;;4.75;100.00;99932.63;5010593;28;20219;-79
2023/12/14 00:10:40;;;;;;;10.03;6.30;;;;;;;4.72;100.00;99938.88;5010069;28;20781;-78
2023/12/14 00:13:07;;;;;;;10.03;5.97;;;;;;;4.68;100.00;99944.38;5006982;28;20402;-79
2023/12/14 00:15:34;;;;;;;8.80;5.60;;;;;;;4.65;100.00;99949.84;5006703;28;20211;-78
2023/12/14 00:18:00;;;;;;;10.20;6.77;;;;;;;4.63;100.00;99947.28;5000667;28;20223;-79
2023/12/14 00:20:27;;;;;;;8.27;5.70;;;;;;;4.62;100.00;99953.50;5004552;28;20203;-78
2023/12/14 00:22:53;;;;;;;11.20;6.53;;;;;;;4.58;100.00;99961.63;5008088;28;20214;-79
2023/12/14 00:25:21;;;;;;;8.93;6.07;;;;;;;4.56;100.00;99960.84;5006224;28;20199;-79
2023/12/14 00:27:47;;;;;;;11.13;6.30;;;;;;;4.53;100.00;99967.97;5002650;28;20230;-78
2023/12/14 00:30:14;;;;;;;8.97;5.53;;;;;;;4.52;100.00;99974.16;5003892;28;20198;-78
2023/12/14 00:32:41;;;;;;;7.90;5.27;;;;;;;4.49;100.00;99968.19;5002965;28;20218;-78
2023/12/14 00:35:08;;;;;;;9.60;5.67;;;;;;;4.47;100.00;99984.09;5004762;28;20217;-79
2023/12/14 00:37:34;;;;;;;8.20;5.13;;;;;;;4.44;100.00;99986.88;5009480;28;20234;-79
2023/12/14 00:40:01;;;;;;;7.73;4.93;;;;;;;4.40;100.00;99995.88;5005021;28;20621;-79
2023/12/14 00:42:29;;;;;;;10.07;5.77;;;;;;;4.40;100.00;99989.75;5007563;28;20286;-80
2023/12/14 00:44:55;;;;;;;9.20;5.57;;;;;;;4.37;100.00;99995.16;5008223;28;20283;-79
2023/12/14 00:47:21;;;;;;;7.93;5.10;;;;;;;4.33;100.00;99999.72;5008994;28;20257;-80
2023/12/14 00:49:48;;;;;;;5.93;4.70;;;;;;;4.32;100.00;100002.44;5003595;28;20207;-80
2023/12/14 00:52:14;;;;;;;6.73;5.43;;;;;;;4.31;100.00;100004.19;5003824;28;20231;-79
2023/12/14 00:54:41;;;;;;;5.93;4.27;;;;;;;4.29;100.00;100014.00;5010227;28;20651;-79
2023/12/14 00:57:07;;;;;;;7.73;4.90;;;;;;;4.29;100.00;100021.91;5007512;28;20254;-81
2023/12/14 00:59:35;;;;;;;6.73;4.23;;;;;;;4.30;100.00;100025.41;5006457;28;20208;-80
2023/12/14 01:02:02;;;;;;;6.27;4.57;;;;;;;4.28;100.00;100032.53;5004500;28;20209;-80
2023/12/14 01:04:28;;;;;;;6.73;4.33;;;;;;;4.25;100.00;100032.66;5002377;28;20295;-80
2023/12/14 01:06:54;;;;;;;6.50;4.43;;;;;;;4.21;100.00;100037.22;5008692;28;20242;-79
2023/12/14 01:09:21;;;;;;;7.03;4.83;;;;;;;4.19;100.00;100039.06;5004183;28;20204;-79
2023/12/14 01:11:47;;;;;;;6.73;4.90;;;;;;;4.17;100.00;100041.75;5005806;28;20234;-79
2023/12/14 01:14:14;;;;;;;8.90;4.90;;;;;;;4.17;100.00;100052.31;5007060;28;20214;-80
2023/12/14 01:16:42;;;;;;;6.97;4.80;;;;;;;4.17;100.00;100056.72;5006207;28;20743;-79
2023/12/14 01:19:08;;;;;;;7.50;5.27;;;;;;;4.16;100.00;100066.41;5007132;28;20213;-80
2023/12/14 01:21:34;;;;;;;8.73;5.50;;;;;;;4.14;100.00;100063.00;5006499;28;20210;-79
2023/12/14 01:24:01;;;;;;;7.90;5.60;;;;;;;4.15;100.00;100085.78;5009942;28;20218;-79
2023/12/14 01:26:27;;;;;;;9.10;5.97;;;;;;;4.15;100.00;100080.50;5000415;28;20838;-79
2023/12/14 01:28:54;;;;;;;8.07;5.27;;;;;;;4.13;100.00;100078.88;5003620;28;20214;-80
2023/12/14 01:31:23;;;;;;;8.13;5.43;;;;;;;4.14;100.00;100081.44;5003900;28;20223;-79
2023/12/14 01:33:50;;;;;;;7.60;5.40;;;;;;;4.13;100.00;100082.34;5006639;28;20581;-79
2023/12/14 01:36:21;;;;;;;7.17;4.90;;;;;;;4.13;100.00;100087.63;5006918;28;20215;-79
2023/12/14 01:38:47;;;;;;;9.50;5.13;;;;;;;4.14;100.00;100085.84;5005587;28;20588;-80
2023/12/14 01:41:14;;;;;;;8.73;5.63;;;;;;;4.16;100.00;100100.66;5004871;28;20207;-79
2023/12/14 01:43:40;;;;;;;7.03;4.40;;;;;;;4.15;100.00;100108.66;5004751;28;20214;-80
2023/12/14 01:46:07;;;;;;;7.67;4.53;;;;;;;4.13;100.00;100098.16;5005690;28;20729;-79
2023/12/14 01:48:34;;;;;;;9.33;5.50;;;;;;;4.13;100.00;100110.50;5005972;28;20230;-80
2023/12/14 01:51:08;;;;;;;8.10;5.20;;;;;;;4.12;100.00;100104.38;5005869;28;20222;-79
2023/12/14 01:53:34;;;;;;;7.50;5.07;;;;;;;4.09;100.00;100107.16;5007944;28;20206;-79
2023/12/14 01:56:01;;;;;;;7.20;4.97;;;;;;;4.04;100.00;100109.16;5004417;28;20211;-79
2023/12/14 01:58:27;;;;;;;5.87;4.37;;;;;;;4.04;100.00;100105.66;5002771;28;20830;-80
2023/12/14 02:01:01;;;;;;;7.67;4.23;;;;;;;4.01;100.00;100111.91;4997308;28;20299;-79
2023/12/14 02:03:28;;;;;;;6.63;5.10;;;;;;;4.01;100.00;100117.19;4999284;28;20196;-79
2023/12/14 02:05:55;;;;;;;6.83;4.60;;;;;;;3.96;100.00;100127.06;5004209;28;20210;-79
2023/12/14 02:08:23;;;;;;;6.00;4.73;;;;;;;3.93;100.00;100127.22;5006092;28;20237;-80
2023/12/14 02:10:49;;;;;;;6.77;5.43;;;;;;;3.92;100.00;100146.59;5004878;28;20227;-79
2023/12/14 02:13:15;;;;;;;6.80;5.67;;;;;;;3.90;100.00;100145.78;5002588;28;20207;-79
2023/12/14 02:15:42;;;;;;;7.80;6.27;;;;;;;3.87;100.00;100152.97;5009624;28;20213;-80
2023/12/14 02:18:09;;;;;;;8.30;6.23;;;;;;;3.87;100.00;100151.19;5003807;28;20695;-79
2023/12/14 02:20:35;;;;;;;8.63;6.67;;;;;;;3.89;100.00;100151.13;5004502;28;20203;-80
2023/12/14 02:23:03;;;;;;;7.33;5.73;;;;;;;3.90;100.00;100160.75;5005267;28;20213;-78
2023/12/14 02:25:30;;;;;;;8.67;6.03;;;;;;;3.90;100.00;100166.00;5005499;28;20216;-80
2023/12/14 02:27:56;;;;;;;8.50;5.73;;;;;;;3.89;100.00;100174.84;5003251;28;20243;-80
2023/12/14 02:30:23;;;;;;;6.87;5.50;;;;;;;3.86;100.00;100170.56;5011700;28;20202;-80
2023/12/14 02:32:49;;;;;;;9.00;6.23;;;;;;;3.85;100.00;100171.47;5008556;28;20231;-79
2023/12/14 02:35:18;;;;;;;9.27;6.60;;;;;;;3.81;100.00;100175.16;5001978;28;20203;-79
2023/12/14 02:37:44;;;;;;;7.97;6.37;;;;;;;3.82;100.00;100179.50;5003848;28;20246;-79
2023/12/14 02:40:13;;;;;;;7.80;5.93;;;;;;;3.82;100.00;100168.97;5005622;28;20233;-80
2023/12/14 02:42:40;;;;;;;8.10;5.60;;;;;;;3.85;100.00;100176.75;5007983;28;20219;-79
2023/12/14 02:45:08;;;;;;;8.00;6.03;;;;;;;3.85;100.00;100176.75;5002597;28;20214;-79
2023/12/14 02:47:35;;;;;;;8.10;5.80;;;;;;;3.83;100.00;100179.44;5008402;28;20226;-79
2023/12/14 02:50:02;;;;;;;7.87;6.13;;;;;;;3.81;100.00;100180.41;5003321;28;20655;-79
2023/12/14 02:52:28;;;;;;;8.33;6.40;;;;;;;3.79;100.00;100187.53;5000037;28;20679;-79
2023/12/14 02:54:55;;;;;;;8.50;5.87;;;;;;;3.79;100.00;100190.16;5006554;28;20301;-81
2023/12/14 02:57:23;;;;;;;8.30;6.33;;;;;;;3.79;100.00;100192.81;5002951;28;20222;-79
2023/12/14 02:59:49;;;;;;;10.47;6.83;;;;;;;3.82;100.00;100203.22;5007812;28;20218;-80
2023/12/14 03:02:16;;;;;;;7.83;5.27;;;;;;;3.83;100.00;100204.94;5004277;28;20203;-79
2023/12/14 03:04:42;;;;;;;8.27;5.40;;;;;;;3.83;100.00;100210.19;5003694;28;20660;-80
2023/12/14 03:07:09;;;;;;;8.73;5.67;;;;;;;3.81;100.00;100205.00;5003792;28;20715;-80
2023/12/14 03:09:35;;;;;;;6.67;4.60;;;;;;;3.80;100.00;100207.69;5006210;28;20203;-79
2023/12/14 03:12:02;;;;;;;6.23;4.53;;;;;;;3.78;100.00;100206.88;5010261;28;20238;-79
2023/12/14 03:14:33;;;;;;;6.67;5.30;;;;;;;3.77;100.00;100210.44;5005006;28;20211;-80
2023/12/14 03:17:00;;;;;;;5.77;4.60;;;;;;;3.75;100.00;100218.44;5005054;28;20254;-79
2023/12/14 03:19:27;;;;;;;5.30;4.20;;;;;;;3.75;100.00;100222.84;5005312;28;20210;-79
2023/12/14 03:21:53;;;;;;;5.50;4.43;;;;;;;3.72;100.00;100215.94;5004288;28;20198;-80
2023/12/14 03:24:20;;;;;;;4.87;4.37;;;;;;;3.73;100.00;100227.31;5011495;28;20203;-79
2023/12/14 03:26:46;;;;;;;6.20;4.80;;;;;;;3.70;100.00;100219.53;5002610;28;20227;-79
2023/12/14 03:29:12;;;;;;;6.40;5.47;;;;;;;3.66;100.00;100228.50;5002615;28;20668;-80
2023/12/14 03:31:40;;;;;;;6.73;4.97;;;;;;;3.66;100.00;100233.75;5002740;28;20235;-79
2023/12/14 03:34:07;;;;;;;6.80;5.60;;;;;;;3.65;100.00;100242.56;5002804;28;20203;-79
2023/12/14 03:36:33;;;;;;;7.57;5.93;;;;;;;3.68;100.00;100239.81;5008101;28;20211;-80
2023/12/14 03:39:00;;;;;;;6.53;5.40;;;;;;;3.66;100.00;100245.16;5004390;28;20812;-79
2023/12/14 03:41:27;;;;;;;6.83;5.37;;;;;;;3.64;100.00;100241.72;5005825;28;20213;-80
2023/12/14 03:43:53;;;;;;;8.63;5.83;;;;;;;3.62;100.00;100245.31;5007805;28;20211;-80
2023/12/14 03:46:20;;;;;;;7.77;6.20;;;;;;;3.61;100.00;100251.50;5002078;28;20215;-79
2023/12/14 03:48:48;;;;;;;7.80;5.90;;;;;;;3.57;100.00;100258.69;5006591;28;20214;-81
2023/12/14 03:51:14;;;;;;;10.00;6.73;;;;;;;3.57;100.00;100265.75;5009049;28;20269;-80
2023/12/14 03:53:41;;;;;;;10.23;7.40;;;;;;;3.58;100.00;100268.31;5003073;28;20203;-80
2023/12/14 03:56:09;;;;;;;8.93;6.90;;;;;;;3.60;100.00;100276.97;5008117;28;20300;-80
2023/12/14 03:58:35;;;;;;;10.20;7.30;;;;;;;3.58;100.00;100272.72;5009656;28;20234;-80
2023/12/14 04:01:02;;;;;;;10.10;7.77;;;;;;;3.57;100.00;100277.13;5013529;28;20208;-79
2023/12/14 04:03:28;;;;;;;11.97;7.70;;;;;;;3.58;100.00;100273.59;5006699;28;20215;-80
2023/12/14 04:05:56;;;;;;;11.53;7.90;;;;;;;3.60;100.00;100271.72;5009684;28;20230;-80
2023/12/14 04:08:22;;;;;;;11.40;7.57;;;;;;;3.57;100.00;100276.28;5007726;28;20223;-81
2023/12/14 04:10:49;;;;;;;10.53;7.20;;;;;;;3.54;100.00;100276.41;5009294;28;20203;-81
2023/12/14 04:13:15;;;;;;;9.30;6.80;;;;;;;3.55;100.00;100278.97;5000988;28;20230;-79
2023/12/14 04:15:43;;;;;;;11.87;7.00;;;;;;;3.54;100.00;100281.66;5002283;28;20668;-79
2023/12/14 04:18:09;;;;;;;8.93;7.20;;;;;;;3.53;100.00;100287.84;5007333;28;20229;-80
2023/12/14 04:20:35;;;;;;;9.20;6.70;;;;;;;3.54;100.00;100294.81;5004657;28;20646;-80
2023/12/14 04:23:03;;;;;;;11.63;7.10;;;;;;;3.53;100.00;100301.00;5005736;28;20290;-79
2023/12/14 04:25:30;;;;;;;9.90;7.30;;;;;;;3.51;100.00;100306.34;5008531;28;20218;-81
2023/12/14 04:27:56;;;;;;;10.23;7.93;;;;;;;3.50;100.00;100312.50;5008435;28;20239;-80
2023/12/14 04:30:23;;;;;;;10.80;7.87;;;;;;;3.51;100.00;100316.00;5002593;28;20238;-80
2023/12/14 04:32:49;;;;;;;11.03;7.63;;;;;;;3.53;100.00;100329.97;5007654;28;20233;-80
2023/12/14 04:35:16;;;;;;;11.43;7.70;;;;;;;3.53;100.00;100327.34;5004219;28;20685;-80
2023/12/14 04:37:42;;;;;;;11.53;8.47;;;;;;;3.54;100.00;100335.19;5010146;28;20594;-81
2023/12/14 04:40:11;;;;;;;13.47;8.13;;;;;;;3.54;100.00;100335.19;5011921;28;20207;-81
2023/12/14 04:42:37;;;;;;;14.17;8.87;;;;;;;3.55;100.00;100341.31;5010084;28;20206;-79
2023/12/14 04:45:05;;;;;;;13.87;9.07;;;;;;;3.55;100.00;100342.16;5007286;28;20254;-79
2023/12/14 04:47:31;;;;;;;15.90;9.40;;;;;;;3.58;100.00;100351.72;5005015;28;20589;-80
2023/12/14 04:49:58;;;;;;;16.87;9.63;;;;;;;3.58;100.00;100357.84;5004667;28;20698;-79
2023/12/14 04:52:24;;;;;;;16.83;9.43;;;;;;;3.57;100.00;100355.28;5013137;28;20231;-80
2023/12/14 04:54:51;;;;;;;15.87;9.37;;;;;;;3.56;100.00;100361.44;5008662;28;20202;-80
2023/12/14 04:57:19;;;;;;;15.33;9.43;;;;;;;3.55;100.00;100357.09;5000143;28;20223;-81
2023/12/14 04:59:45;;;;;;;13.60;8.83;;;;;;;3.55;100.00;100359.72;5003516;28;20207;-79
2023/12/14 05:02:12;;;;;;;12.90;8.87;;;;;;;3.58;100.00;100370.16;5007569;28;20210;-81
2023/12/14 05:04:38;;;;;;;14.80;8.63;;;;;;;3.57;100.00;100374.56;5008628;28;20199;-79
2023/12/14 05:07:05;;;;;;;14.17;9.80;;;;;;;3.57;100.00;100373.69;5001618;28;20227;-79
2023/12/14 05:09:32;;;;;;;17.87;10.27;;;;;;;3.53;100.00;100367.69;5004386;28;20211;-80
2023/12/14 05:11:58;;;;;;;15.50;9.60;;;;;;;3.53;100.00;100385.25;5010099;28;20216;-80
2023/12/14 05:14:28;;;;;;;17.70;10.07;;;;;;;3.52;100.00;100388.81;5009831;28;21777;-80
2023/12/14 05:16:55;;;;;;;19.23;10.80;;;;;;;3.47;100.00;100386.34;5006885;28;20239;-81
2023/12/14 05:19:21;;;;;;;18.93;11.47;;;;;;;3.46;100.00;100403.06;5010175;28;20683;-81
2023/12/14 05:21:48;;;;;;;20.27;10.53;;;;;;;3.46;100.00;100397.78;5007658;28;20569;-79
2023/12/14 05:24:14;;;;;;;19.53;10.83;;;;;;;3.43;100.00;100393.50;5003868;28;20219;-81
2023/12/14 05:26:41;;;;;;;17.43;9.87;;;;;;;3.41;100.00;100405.84;5004999;28;20199;-78
2023/12/14 05:29:07;;;;;;;18.60;10.93;;;;;;;3.41;100.00;100412.91;5012291;28;20206;-80
2023/12/14 05:31:35;;;;;;;17.67;10.03;;;;;;;3.41;100.00;100432.19;5011799;28;20214;-80
2023/12/14 05:34:02;;;;;;;16.37;10.17;;;;;;;3.41;100.00;100424.28;5008103;28;20822;-81
2023/12/14 05:36:28;;;;;;;16.97;9.90;;;;;;;3.41;100.00;100426.06;5012930;28;20309;-80
2023/12/14 05:38:55;;;;;;;13.70;9.30;;;;;;;3.41;100.00;100431.31;5009404;28;20211;-80
2023/12/14 05:41:21;;;;;;;14.40;9.00;;;;;;;3.38;100.00;100442.84;5005285;28;20210;-80
2023/12/14 05:43:48;;;;;;;18.87;9.60;;;;;;;3.37;100.00;100440.28;5004169;28;20211;-79
2023/12/14 05:46:21;;;;;;;18.77;10.83;;;;;;;3.37;100.00;100440.28;5008284;28;20206;-80
2023/12/14 05:48:49;;;;;;;16.00;9.50;;;;;;;3.36;100.00;100438.56;5002651;28;20546;-79
2023/12/14 05:51:27;;;;;;;12.90;8.33;;;;;;;3.35;100.00;100437.69;5005508;28;20215;-80
2023/12/14 05:53:53;;;;;;;11.40;8.23;;;;;;;3.33;100.00;100447.41;5002942;28;20695;-79
2023/12/14 05:56:20;;;;;;;13.03;9.00;;;;;;;3.33;100.00;100449.19;5008590;28;20573;-79
2023/12/14 05:58:46;;;;;;;12.80;8.83;;;;;;;3.30;100.00;100452.78;5001596;28;20232;-81
2023/12/14 06:01:13;;;;;;;13.90;9.47;;;;;;;3.31;100.00;100456.28;5003247;28;20214;-81
2023/12/14 06:03:39;;;;;;;14.93;9.40;;;;;;;3.31;100.00;100449.25;5005611;28;20285;-79
2023/12/14 06:06:07;;;;;;;15.27;9.70;;;;;;;3.32;100.00;100461.50;5006808;28;20217;-80
2023/12/14 06:08:34;;;;;;;14.10;9.20;;;;;;;3.37;100.00;100458.69;5007180;28;20226;-80
2023/12/14 06:11:00;;;;;;;14.77;9.33;;;;;;;3.39;100.00;100473.53;5002882;28;20211;-79
2023/12/14 06:13:27;;;;;;;13.40;9.40;;;;;;;3.38;100.00;100476.22;5005280;28;20234;-79
2023/12/14 06:15:53;;;;;;;12.70;9.20;;;;;;;3.38;100.00;100479.72;5005020;28;20203;-79
2023/12/14 06:18:20;;;;;;;13.40;8.73;;;;;;;3.40;100.00;100477.03;5009080;28;20237;-80
2023/12/14 06:20:47;;;;;;;16.93;9.67;;;;;;;3.42;100.00;100486.56;5003461;28;20211;-81
2023/12/14 06:23:15;;;;;;;15.23;9.73;;;;;;;3.43;100.00;100490.91;5006031;28;20203;-81
2023/12/14 06:25:41;;;;;;;12.60;8.27;;;;;;;3.46;100.00;100487.31;5006327;28;20214;-78
2023/12/14 06:28:07;;;;;;;13.43;8.70;;;;;;;3.42;100.00;100486.56;5007959;28;20238;-79
2023/12/14 06:30:34;;;;;;;11.77;7.67;;;;;;;3.43;100.00;100482.16;5006653;28;20207;-80
2023/12/14 06:33:01;;;;;;;12.47;9.13;;;;;;;3.41;100.00;100492.72;5007766;28;20227;-79
2023/12/14 06:35:27;;;;;;;14.27;9.47;;;;;;;3.40;100.00;100483.13;5009622;28;20206;-80
2023/12/14 06:37:53;;;;;;;13.77;8.40;;;;;;;3.38;100.00;100482.34;5003830;28;20227;-81
2023/12/14 06:40:22;;;;;;;10.43;7.73;;;;;;;3.36;100.00;100499.97;5002712;28;20207;-81
2023/12/14 06:42:49;;;;;;;12.67;7.93;;;;;;;3.37;100.00;100506.09;5004726;28;20195;-79
2023/12/14 06:45:16;;;;;;;10.90;6.80;;;;;;;3.36;100.00;100515.75;5007278;28;20202;-80
2023/12/14 06:47:43;;;;;;;10.83;8.03;;;;;;;3.38;100.00;100513.94;5008143;28;20610;-80
2023/12/14 06:50:10;;;;;;;9.37;7.53;;;;;;;3.36;100.00;100526.28;5006836;28;20583;-79
2023/12/14 06:52:37;;;;;;;10.00;8.07;;;;;;;3.36;100.00;100521.00;5004580;28;20231;-81
2023/12/14 06:55:04;;;;;;;9.03;7.43;;;;;;;3.34;100.00;100522.84;5005154;28;20222;-80
2023/12/14 06:57:31;;;;;;;10.97;7.90;;;;;;;3.36;100.00;100523.66;5005893;28;20599;-80
2023/12/14 06:59:58;;;;;;;11.37;8.40;;;;;;;3.36;100.00;100523.66;5003587;28;20221;-80
2023/12/14 07:02:24;;;;;;;10.07;7.50;;;;;;;3.37;100.00;100535.03;5002934;28;20207;-79
2023/12/14 07:04:51;;;;;;;11.27;8.30;;;;;;;3.36;100.00;100542.06;5009598;28;20207;-79
2023/12/14 07:07:17;;;;;;;13.10;8.83;;;;;;;3.34;100.00;100554.44;5002300;28;20227;-79
2023/12/14 07:09:46;;;;;;;11.20;8.07;;;;;;;3.35;100.00;100556.16;5004036;28;20590;-81
2023/12/14 07:12:13;;;;;;;14.57;9.23;;;;;;;3.38;100.00;100563.94;5012447;28;20199;-79
2023/12/14 07:14:41;;;;;;;11.80;9.13;;;;;;;3.39;100.00;100565.66;5008280;28;20257;-79
2023/12/14 07:17:07;;;;;;;14.23;8.67;;;;;;;3.41;100.00;100574.34;5008851;28;20222;-79
2023/12/14 07:19:35;;;;;;;12.40;8.33;;;;;;;3.43;100.00;100576.91;5007529;28;20253;-81
2023/12/14 07:22:02;;;;;;;10.97;8.57;;;;;;;3.43;100.00;100580.41;5007405;28;20218;-80
2023/12/14 07:24:28;;;;;;;11.47;8.20;;;;;;;3.44;100.00;100576.00;5009257;28;20227;-80
2023/12/14 07:26:55;;;;;;;11.10;8.00;;;;;;;3.42;100.00;100581.31;5007025;28;20233;-79
2023/12/14 07:29:21;;;;;;;11.27;8.20;;;;;;;3.43;100.00;100585.69;5011110;28;20203;-79
2023/12/14 07:31:49;;;;;;;10.70;7.97;;;;;;;3.43;100.00;100588.31;5012204;28;20212;-81
2023/12/14 07:34:15;;;;;;;10.60;7.67;;;;;;;3.44;100.00;100589.16;5009342;28;20255;-79
2023/12/14 07:36:42;;;;;;;12.00;8.27;;;;;;;3.45;100.00;100604.91;5014389;28;20211;-81
2023/12/14 07:39:09;;;;;;;11.13;7.97;;;;;;;3.46;100.00;100606.63;5012329;28;20215;-79
2023/12/14 07:41:35;;;;;;;10.37;7.70;;;;;;;3.48;100.00;100607.44;5013178;28;20215;-79
2023/12/14 07:44:02;;;;;;;10.23;7.83;;;;;;;3.48;100.00;100615.34;5006370;28;20211;-80
2023/12/14 07:46:28;;;;;;;10.67;7.30;;;;;;;3.47;100.00;100616.25;5008201;28;20285;-80
2023/12/14 07:48:56;;;;;;;10.67;7.67;;;;;;;3.48;100.00;100625.03;5012301;28;20210;-79
2023/12/14 07:51:23;;;;;;;10.13;7.20;;;;;;;3.48;100.00;100633.78;5011488;28;20203;-79
2023/12/14 07:53:49;;;;;;;10.53;7.57;;;;;;;3.49;100.00;100632.00;5006678;28;20246;-80
2023/12/14 07:56:16;;;;;;;9.90;7.40;;;;;;;3.48;100.00;100640.81;5009337;28;20273;-80
2023/12/14 07:58:42;;;;;;;9.60;7.50;;;;;;;3.47;100.00;100639.97;5009454;28;20675;-79
2023/12/14 08:01:09;;;;;;;10.73;8.00;;;;;;;3.46;100.00;100646.13;5008922;28;20222;-81
2023/12/14 08:03:36;;;;;;;11.80;8.33;;;;;;;3.45;100.00;100646.19;5011593;28;20668;-81
2023/12/14 08:06:04;;;;;;;11.43;8.00;;;;;;;3.45;100.00;100651.44;5009726;28;20253;-81
2023/12/14 08:08:30;;;;;;;9.77;7.83;;;;;;;3.45;100.00;100659.34;5008229;28;20227;-81
2023/12/14 08:10:57;;;;;;;10.47;7.77;;;;;;;3.43;100.00;100662.03;5008698;28;20203;-80
2023/12/14 08:13:23;;;;;;;11.53;7.23;;;;;;;3.44;100.00;100669.03;5007884;28;20246;-79
2023/12/14 08:15:50;;;;;;;12.27;8.67;;;;;;;3.46;100.00;100672.47;5016453;28;20211;-80
2023/12/14 08:18:16;;;;;;;13.63;8.70;;;;;;;3.47;100.00;100676.81;5011524;28;20230;-80
2023/12/14 08:20:43;;;;;;;14.23;8.67;;;;;;;3.48;100.00;100685.56;5008632;28;20722;-79
2023/12/14 08:23:11;;;;;;;13.20;9.63;;;;;;;3.45;100.00;100691.81;5007952;28;20733;-79
2023/12/14 08:25:38;;;;;;;15.57;10.33;;;;;;;3.44;100.00;100695.34;5007113;28;20213;-79
2023/12/14 08:28:04;;;;;;;14.23;9.90;;;;;;;3.46;100.00;100700.56;5009307;28;20227;-79
2023/12/14 08:30:31;;;;;;;11.97;8.60;;;;;;;3.45;100.00;100701.47;5012879;28;20206;-79
2023/12/14 08:32:57;;;;;;;11.87;8.77;;;;;;;3.46;100.00;100711.09;5010991;28;20199;-80
2023/12/14 08:35:24;;;;;;;10.47;7.73;;;;;;;3.48;100.00;100710.13;5010477;28;20572;-82
2023/12/14 08:37:50;;;;;;;10.50;7.47;;;;;;;3.49;100.00;100714.50;5010066;28;20257;-79
2023/12/14 08:40:18;;;;;;;10.30;7.73;;;;;;;3.48;100.00;100709.28;5008772;28;20226;-79
2023/12/14 08:42:44;;;;;;;12.07;8.27;;;;;;;3.46;100.00;100717.22;5012560;28;20222;-79
2023/12/14 08:45:12;;;;;;;11.60;7.97;;;;;;;3.45;100.00;100718.13;5008881;28;20211;-80
2023/12/14 08:47:38;;;;;;;10.70;8.07;;;;;;;3.43;100.00;100727.84;5011481;28;20227;-80
2023/12/14 08:50:07;;;;;;;11.97;8.10;;;;;;;3.46;100.00;100729.53;5007011;28;20691;-80
2023/12/14 08:52:34;;;;;;;12.33;7.87;;;;;;;3.48;100.00;100744.38;5009024;28;20224;-80
2023/12/14 08:55:01;;;;;;;10.13;8.00;;;;;;;3.50;100.00;100749.59;5003530;28;20230;-81
2023/12/14 08:57:29;;;;;;;9.10;7.30;;;;;;;3.50;100.00;100752.22;5005555;28;20701;-79
2023/12/14 08:59:56;;;;;;;9.70;6.33;;;;;;;3.49;100.00;100759.25;5006184;28;20231;-79
2023/12/14 09:02:22;;;;;;;7.60;5.67;;;;;;;3.47;100.00;100766.34;5008716;28;20230;-80
2023/12/14 09:04:49;;;;;;;8.33;5.90;;;;;;;3.48;100.00;100772.47;5010548;28;20209;-80
2023/12/14 09:07:15;;;;;;;8.37;6.37;;;;;;;3.46;100.00;100787.44;5015594;28;20231;-79
2023/12/14 09:09:41;;;;;;;8.13;6.40;;;;;;;3.48;100.00;100785.63;5007394;28;20210;-78
2023/12/14 09:12:08;;;;;;;8.20;6.50;;;;;;;3.48;100.00;100788.25;5012407;28;20208;-81
2023/12/14 09:14:36;;;;;;;7.80;6.10;;;;;;;3.49;100.00;100796.13;5003967;28;20237;-79
2023/12/14 09:17:03;;;;;;;7.03;4.87;;;;;;;3.51;100.00;100797.84;5011292;28;20277;-79
2023/12/14 09:19:30;;;;;;;7.23;4.63;;;;;;;3.54;100.00;100803.00;5012590;28;20211;-80
2023/12/14 09:21:57;;;;;;;5.67;4.40;;;;;;;3.51;100.00;100805.75;5009220;28;20211;-80
2023/12/14 09:24:23;;;;;;;6.57;5.37;;;;;;;3.49;100.00;100809.28;5008736;28;20195;-80
2023/12/14 09:26:50;;;;;;;6.50;5.03;;;;;;;3.52;100.00;100812.72;5000951;28;20222;-81
2023/12/14 09:29:16;;;;;;;6.67;5.00;;;;;;;3.54;100.00;100818.81;5012464;28;20207;-80
2023/12/14 09:31:45;;;;;;;6.03;4.33;;;;;;;3.53;100.00;100822.34;5005423;28;20603;-80
2023/12/14 09:34:12;;;;;;;6.40;4.77;;;;;;;3.53;100.00;100828.47;5011898;28;20706;-80
2023/12/14 09:36:38;;;;;;;6.70;4.80;;;;;;;3.54;100.00;100829.34;5005284;28;20293;-80
2023/12/14 09:39:05;;;;;;;6.17;4.77;;;;;;;3.55;100.00;100831.94;5005738;28;20230;-80
2023/12/14 09:41:35;;;;;;;6.43;4.87;;;;;;;3.54;100.00;100837.25;5007180;28;20211;-81
2023/12/14 09:44:03;;;;;;;6.43;4.70;;;;;;;3.58;100.00;100836.25;5012445;28;20215;-80
2023/12/14 09:46:31;;;;;;;7.20;4.90;;;;;;;3.59;100.00;100833.53;5012302;28;20597;-81
2023/12/14 09:49:01;;;;;;;6.60;4.30;;;;;;;3.58;100.00;100836.25;5008689;28;20223;-80
2023/12/14 09:51:27;;;;;;;6.03;3.93;;;;;;;3.58;100.00;100839.75;5002781;28;20211;-80
2023/12/14 09:53:57;;;;;;;6.50;3.97;;;;;;;3.60;100.00;100839.66;5005051;28;20238;-80
2023/12/14 09:56:24;;;;;;;4.97;4.30;;;;;;;3.60;100.00;100842.31;5006278;28;20215;-80
2023/12/14 09:58:50;;;;;;;5.47;4.40;;;;;;;3.60;100.00;100835.25;5002903;28;20708;-80
2023/12/14 10:01:24;;;;;;;6.33;4.57;;;;;;;3.64;100.00;100838.66;5016301;28;20225;-80
2023/12/14 10:03:51;;;;;;;6.70;5.07;;;;;;;3.64;100.00;100838.66;5008470;28;20249;-79
2023/12/14 10:06:20;;;;;;;7.57;5.67;;;;;;;3.66;100.00;100844.75;5009961;28;20195;-79
2023/12/14 10:08:55;;;;;;;7.03;5.30;;;;;;;3.69;100.00;100845.53;5011282;28;20227;-80
2023/12/14 10:11:22;;;;;;;7.73;5.50;;;;;;;3.71;100.00;100848.09;5007376;28;20207;-80
2023/12/14 10:13:48;;;;;;;7.13;4.80;;;;;;;3.72;100.00;100858.59;5009468;28;20638;-81
2023/12/14 10:16:27;;;;;;;5.03;4.37;;;;;;;3.74;100.00;100862.03;5007456;28;20762;-79
2023/12/14 10:18:54;;;;;;;4.93;3.70;;;;;;;3.74;100.00;100869.94;5009693;28;20203;-80
2023/12/14 10:21:22;;;;;;;6.40;4.40;;;;;;;3.75;100.00;100873.44;5012827;28;20682;-79
2023/12/14 10:23:49;;;;;;;4.83;3.47;;;;;;;3.77;100.00;100868.97;5006391;28;20204;-78
2023/12/14 10:26:16;;;;;;;3.90;2.83;;;;;;;3.80;100.00;100877.63;5009791;28;20199;-79
2023/12/14 10:28:42;;;;;;;4.03;2.63;;;;;;;3.82;100.00;100877.59;5002682;28;20715;-79
2023/12/14 10:31:10;;;;;;;9.57;4.53;;;;;;;3.82;100.00;100885.50;5007009;28;20215;-81
2023/12/14 10:33:38;;;;;;;6.07;4.03;;;;;;;3.84;100.00;100888.94;5007241;28;20207;-81
2023/12/14 10:36:05;;;;;;;5.77;4.13;;;;;;;3.86;100.00;100891.53;5005366;28;20214;-79
2023/12/14 10:38:35;;;;;;;5.87;4.30;;;;;;;3.85;100.00;100903.84;5003291;28;20285;-80
2023/12/14 10:41:02;;;;;;;5.10;3.87;;;;;;;3.85;100.00;100903.84;5007443;28;20219;-79
2023/12/14 10:43:29;;;;;;;5.47;4.27;;;;;;;3.87;100.00;100902.03;5010851;28;20199;-80
2023/12/14 10:45:56;;;;;;;7.07;4.13;;;;;;;3.88;100.00;100902.88;5008112;28;20214;-81
2023/12/14 10:48:23;;;;;;;5.70;4.60;;;;;;;3.88;100.00;100903.75;5010676;28;20238;-80
2023/12/14 10:51:00;;;;;;;5.50;4.40;;;;;;;3.89;100.00;100904.63;5005129;28;20214;-79
2023/12/14 10:53:27;;;;;;;6.03;4.70;;;;;;;3.89;100.00;100905.47;5005174;28;20195;-79
2023/12/14 10:55:59;;;;;;;7.57;4.50;;;;;;;3.91;100.00;100910.69;5002085;28;20226;-79
2023/12/14 10:58:25;;;;;;;5.83;4.77;;;;;;;3.91;100.00;100911.56;5007183;28;20223;-80
2023/12/14 11:01:01;;;;;;;4.87;4.27;;;;;;;3.91;100.00;100913.34;5010441;28;20203;-81
2023/12/14 11:03:27;;;;;;;5.10;4.07;;;;;;;3.92;100.00;100923.84;5006769;28;20207;-81
2023/12/14 11:05:54;;;;;;;5.17;4.33;;;;;;;3.93;100.00;100924.69;5012548;28;20214;-81
2023/12/14 11:08:20;;;;;;;5.07;4.40;;;;;;;3.92;100.00;100921.19;5018228;28;20233;-82
2023/12/14 11:10:56;;;;;;;6.67;4.73;;;;;;;3.91;100.00;100923.88;5018218;28;20203;-81
2023/12/14 11:13:22;;;;;;;6.70;4.50;;;;;;;3.91;100.00;100937.91;5016699;28;20206;-80
2023/12/14 11:15:50;;;;;;;5.47;4.10;;;;;;;3.90;100.00;100930.06;5017453;28;20226;-81
2023/12/14 11:18:24;;;;;;;6.63;4.63;;;;;;;3.90;100.00;100932.69;5016806;28;20245;-81
2023/12/14 11:20:53;;;;;;;5.87;4.70;;;;;;;3.88;100.00;100947.69;5016146;28;20215;-81